createdAt,value
2023-05-24T00:00:12.997Z,10.40
2023-05-24T00:02:42.806Z,10.30
2023-05-24T00:05:11.624Z,10.30
2023-05-24T00:07:39.936Z,10.30
2023-05-24T00:10:09.533Z,10.30
2023-05-24T00:12:37.714Z,10.30
2023-05-24T00:15:08.494Z,10.30
2023-05-24T00:17:41.167Z,10.30
2023-05-24T00:20:14.356Z,10.20
2023-05-24T00:22:43.015Z,10.20
2023-05-24T00:25:11.389Z,10.20
2023-05-24T00:27:41.828Z,10.20
2023-05-24T00:30:12.047Z,10.10
2023-05-24T00:32:42.956Z,10.10
2023-05-24T00:35:11.506Z,10.10
2023-05-24T00:37:41.890Z,10.10
2023-05-24T00:40:11.149Z,10.10
2023-05-24T00:42:39.502Z,10.10
2023-05-24T00:45:12.272Z,10.10
2023-05-24T00:47:40.825Z,10.10
2023-05-24T00:50:13.152Z,10.00
2023-05-24T00:52:43.846Z,10.00
2023-05-24T00:55:13.402Z,9.90
2023-05-24T00:57:42.132Z,9.90
2023-05-24T01:00:15.026Z,9.90
2023-05-24T01:02:43.978Z,9.80
2023-05-24T01:05:13.564Z,9.80
2023-05-24T01:07:53.740Z,9.80
2023-05-24T01:10:36.057Z,9.80
2023-05-24T01:13:21.919Z,9.70
2023-05-24T01:15:56.684Z,9.70
2023-05-24T01:18:30.240Z,9.70
2023-05-24T01:21:07.829Z,9.70
2023-05-24T01:23:48.704Z,9.60
2023-05-24T01:26:39.191Z,9.60
2023-05-24T01:29:11.888Z,9.60
2023-05-24T01:31:40.073Z,9.60
2023-05-24T01:34:08.480Z,9.50
2023-05-24T01:36:38.872Z,9.50
2023-05-24T01:39:11.239Z,9.50
2023-05-24T01:41:44.340Z,9.50
2023-05-24T01:44:24.773Z,9.50
2023-05-24T01:47:06.634Z,9.40
2023-05-24T01:49:43.455Z,9.40
2023-05-24T01:52:16.742Z,9.40
2023-05-24T01:54:52.507Z,9.40
2023-05-24T01:57:22.205Z,9.40
2023-05-24T01:59:52.540Z,9.40
2023-05-24T02:02:20.958Z,9.30
2023-05-24T02:04:49.314Z,9.30
2023-05-24T02:07:20.035Z,9.30
2023-05-24T02:09:48.243Z,9.30
2023-05-24T02:12:18.644Z,9.20
2023-05-24T02:14:46.816Z,9.20
2023-05-24T02:17:19.616Z,9.20
2023-05-24T02:19:47.957Z,9.20
2023-05-24T02:22:16.143Z,9.20
2023-05-24T02:24:48.454Z,9.20
2023-05-24T02:27:16.861Z,9.10
2023-05-24T02:29:47.756Z,9.10
2023-05-24T02:32:16.057Z,9.10
2023-05-24T02:34:45.868Z,9.10
2023-05-24T02:37:16.393Z,9.10
2023-05-24T02:39:44.914Z,9.10
2023-05-24T02:42:13.231Z,9.10
2023-05-24T02:44:42.749Z,9.00
2023-05-24T02:47:10.930Z,9.00
2023-05-24T02:49:39.065Z,9.10
2023-05-24T02:52:08.772Z,9.00
2023-05-24T02:54:40.032Z,9.00
2023-05-24T02:57:08.233Z,9.00
2023-05-24T02:59:36.402Z,9.00
2023-05-24T03:02:04.765Z,9.00
2023-05-24T03:04:32.975Z,9.00
2023-05-24T03:07:04.427Z,8.90
2023-05-24T03:09:34.691Z,8.90
2023-05-24T03:12:06.873Z,8.90
2023-05-24T03:14:37.119Z,8.90
2023-05-24T03:17:05.638Z,8.90
2023-05-24T03:19:35.058Z,8.90
2023-05-24T03:22:03.242Z,8.90
2023-05-24T03:24:31.731Z,8.90
2023-05-24T03:27:03.666Z,8.90
2023-05-24T03:29:32.555Z,8.90
2023-05-24T03:32:03.095Z,8.90
2023-05-24T03:34:31.559Z,9.00
2023-05-24T03:36:59.802Z,9.00
2023-05-24T03:39:28.184Z,9.00
2023-05-24T03:42:12.776Z,9.00
2023-05-24T03:44:40.966Z,9.00
2023-05-24T03:47:11.522Z,9.00
2023-05-24T03:49:39.700Z,9.00
2023-05-24T03:52:10.223Z,9.00
2023-05-24T03:54:41.456Z,9.10
2023-05-24T03:57:13.854Z,9.10
2023-05-24T03:59:44.361Z,9.10
2023-05-24T04:02:12.608Z,9.20
2023-05-24T04:04:40.820Z,9.20
2023-05-24T04:07:11.896Z,9.20
2023-05-24T04:09:47.681Z,9.30
2023-05-24T04:12:19.607Z,9.30
2023-05-24T04:14:47.813Z,9.30
2023-05-24T04:17:16.086Z,9.30
2023-05-24T04:19:46.797Z,9.40
2023-05-24T04:22:15.032Z,9.40
2023-05-24T04:24:43.401Z,9.40
2023-05-24T04:27:11.690Z,9.40
2023-05-24T04:29:49.579Z,9.40
2023-05-24T04:32:18.094Z,9.40
2023-05-24T04:34:47.027Z,9.40
2023-05-24T04:37:17.462Z,9.40
2023-05-24T04:39:47.672Z,9.40
2023-05-24T04:42:17.426Z,9.50
2023-05-24T04:44:50.101Z,9.50
2023-05-24T04:47:20.674Z,9.50
2023-05-24T04:49:49.487Z,9.50
2023-05-24T04:52:20.130Z,9.50
2023-05-24T04:54:51.517Z,9.50
2023-05-24T04:57:22.544Z,9.50
2023-05-24T04:59:52.033Z,9.50
2023-05-24T05:02:20.330Z,9.50
2023-05-24T05:04:48.629Z,9.50
2023-05-24T05:07:19.193Z,9.60
2023-05-24T05:09:50.488Z,9.60
2023-05-24T05:12:18.828Z,9.70
2023-05-24T05:14:47.598Z,9.70
2023-05-24T05:17:19.885Z,9.80
2023-05-24T05:19:48.519Z,9.80
2023-05-24T05:22:16.952Z,9.90
2023-05-24T05:24:48.236Z,9.90
2023-05-24T05:27:16.454Z,10.00
2023-05-24T05:29:44.541Z,10.00
2023-05-24T05:32:16.348Z,10.10
2023-05-24T05:34:46.031Z,10.20
2023-05-24T05:37:15.283Z,10.30
2023-05-24T05:39:46.046Z,10.40
2023-05-24T05:42:14.214Z,10.40
2023-05-24T05:44:45.361Z,10.50
2023-05-24T05:47:13.583Z,10.50
2023-05-24T05:49:41.809Z,10.50
2023-05-24T05:52:11.768Z,10.60
2023-05-24T05:54:40.030Z,10.60
2023-05-24T05:57:11.682Z,10.70
2023-05-24T05:59:39.944Z,10.70
2023-05-24T06:02:08.634Z,10.80
2023-05-24T06:04:36.863Z,10.80
2023-05-24T06:07:05.196Z,10.80
2023-05-24T06:09:34.761Z,10.80
2023-05-24T06:12:02.964Z,10.90
2023-05-24T06:14:31.752Z,10.90
2023-05-24T06:17:00.511Z,11.00
2023-05-24T06:19:28.709Z,11.00
2023-05-24T06:21:59.390Z,11.00
2023-05-24T06:24:30.546Z,11.10
2023-05-24T06:27:00.085Z,11.20
2023-05-24T06:29:28.260Z,11.20
2023-05-24T06:31:56.718Z,11.30
2023-05-24T06:34:27.452Z,11.30
2023-05-24T06:36:58.200Z,11.30
2023-05-24T06:39:26.771Z,11.40
2023-05-24T06:41:54.927Z,11.40
2023-05-24T06:44:32.152Z,11.40
2023-05-24T06:47:00.513Z,11.50
2023-05-24T06:49:28.779Z,11.60
2023-05-24T06:51:57.031Z,11.60
2023-05-24T06:54:25.639Z,11.70
2023-05-24T06:56:53.869Z,11.70
2023-05-24T06:59:24.238Z,11.70
2023-05-24T07:01:58.922Z,11.80
2023-05-24T07:04:28.419Z,11.90
2023-05-24T07:07:00.153Z,11.90
2023-05-24T07:09:30.527Z,11.90
2023-05-24T07:11:58.866Z,11.90
2023-05-24T07:14:29.588Z,11.90
2023-05-24T07:17:01.397Z,12.00
2023-05-24T07:19:33.536Z,12.00
2023-05-24T07:22:01.965Z,12.10
2023-05-24T07:24:30.155Z,12.10
2023-05-24T07:27:00.515Z,12.20
2023-05-24T07:29:28.729Z,12.30
2023-05-24T07:31:58.090Z,12.30
2023-05-24T07:34:31.295Z,12.40
2023-05-24T07:37:00.611Z,12.40
2023-05-24T07:39:29.391Z,12.50
2023-05-24T07:41:57.520Z,12.50
2023-05-24T07:44:26.155Z,12.60
2023-05-24T07:46:55.794Z,12.70
2023-05-24T07:49:24.313Z,12.70
2023-05-24T07:51:57.021Z,12.80
2023-05-24T07:54:27.503Z,12.80
2023-05-24T07:56:55.721Z,12.90
2023-05-24T07:59:23.940Z,12.90
2023-05-24T08:01:52.493Z,12.90
2023-05-24T08:04:20.837Z,12.90
2023-05-24T08:06:49.136Z,13.00
2023-05-24T08:09:21.188Z,13.00
2023-05-24T08:11:49.364Z,13.00
2023-05-24T08:14:17.570Z,13.10
2023-05-24T08:16:48.451Z,13.10
2023-05-24T08:19:19.397Z,13.20
2023-05-24T08:21:49.997Z,13.30
2023-05-24T08:24:18.164Z,13.30
2023-05-24T08:26:47.699Z,13.40
2023-05-24T08:29:17.583Z,13.30
2023-05-24T08:31:45.794Z,13.40
2023-05-24T08:34:16.661Z,13.60
2023-05-24T08:36:45.956Z,13.70
2023-05-24T08:39:14.189Z,13.70
2023-05-24T08:41:42.406Z,13.70
2023-05-24T08:44:13.067Z,13.70
2023-05-24T08:46:42.071Z,13.60
2023-05-24T08:49:14.753Z,13.50
2023-05-24T08:51:44.257Z,13.50
2023-05-24T08:54:13.864Z,13.40
2023-05-24T08:56:42.267Z,13.30
2023-05-24T08:59:13.569Z,13.30
2023-05-24T09:01:42.543Z,13.30
2023-05-24T09:04:13.568Z,13.30
2023-05-24T09:06:41.937Z,13.30
2023-05-24T09:09:13.098Z,13.20
2023-05-24T09:11:42.889Z,13.30
2023-05-24T09:14:12.721Z,13.40
2023-05-24T09:16:41.694Z,13.40
2023-05-24T09:19:14.125Z,13.50
2023-05-24T09:21:44.616Z,13.50
2023-05-24T09:24:13.221Z,13.60
2023-05-24T09:26:41.330Z,13.60
2023-05-24T09:29:10.324Z,13.80
2023-05-24T09:31:43.835Z,13.90
2023-05-24T09:34:17.020Z,14.10
2023-05-24T09:36:49.394Z,14.20
2023-05-24T09:39:21.035Z,14.30
2023-05-24T09:41:57.262Z,14.40
2023-05-24T09:44:26.916Z,14.50
2023-05-24T09:47:04.923Z,14.50
2023-05-24T09:49:33.873Z,14.50
2023-05-24T09:52:03.205Z,14.60
2023-05-24T09:54:33.725Z,14.70
2023-05-24T09:57:04.945Z,14.60
2023-05-24T09:59:34.922Z,14.50
2023-05-24T10:02:11.639Z,14.40
2023-05-24T10:04:40.097Z,14.40
2023-05-24T10:07:08.844Z,14.50
2023-05-24T10:09:39.836Z,14.50
2023-05-24T10:12:09.683Z,14.50
2023-05-24T10:14:40.630Z,14.60
2023-05-24T10:17:10.649Z,14.60
2023-05-24T10:19:41.993Z,14.60
2023-05-24T10:22:11.621Z,14.60
2023-05-24T10:24:42.115Z,14.60
2023-05-24T10:27:14.386Z,14.60
2023-05-24T10:29:51.169Z,14.60
2023-05-24T10:32:23.153Z,14.60
2023-05-24T10:34:54.608Z,14.60
2023-05-24T10:37:22.935Z,14.60
2023-05-24T10:39:53.502Z,14.60
2023-05-24T10:42:24.573Z,14.60
2023-05-24T10:44:52.775Z,14.60
2023-05-24T10:47:28.744Z,14.60
2023-05-24T10:50:04.592Z,14.70
2023-05-24T10:52:37.112Z,14.70
2023-05-24T10:55:08.059Z,14.80
2023-05-24T10:57:36.846Z,14.80
2023-05-24T11:00:44.527Z,15.00
2023-05-24T11:03:23.426Z,15.00
2023-05-24T11:05:54.341Z,15.10
2023-05-24T11:08:25.800Z,15.20
2023-05-24T11:11:22.190Z,15.20
2023-05-24T11:13:57.040Z,15.20
2023-05-24T11:16:35.252Z,15.20
2023-05-24T11:19:13.572Z,15.20
2023-05-24T11:21:46.112Z,15.20
2023-05-24T11:24:18.547Z,15.20
2023-05-24T11:26:47.404Z,15.10
2023-05-24T11:29:17.874Z,15.20
2023-05-24T11:31:50.732Z,15.20
2023-05-24T11:34:20.403Z,15.10
2023-05-24T11:36:53.091Z,15.10
2023-05-24T11:39:21.438Z,15.10
2023-05-24T11:41:49.805Z,15.20
2023-05-24T11:44:19.875Z,15.20
2023-05-24T11:46:48.163Z,15.00
2023-05-24T11:49:17.548Z,15.10
2023-05-24T11:51:47.981Z,15.00
2023-05-24T11:54:20.490Z,15.10
2023-05-24T11:56:53.225Z,15.10
2023-05-24T11:59:25.209Z,15.10
2023-05-24T12:02:00.095Z,15.10
2023-05-24T12:04:32.650Z,15.20
2023-05-24T12:07:03.411Z,15.30
2023-05-24T12:09:31.826Z,15.30
2023-05-24T12:12:00.004Z,15.30
2023-05-24T12:14:31.055Z,15.30
2023-05-24T12:17:00.928Z,15.40
2023-05-24T12:19:34.559Z,15.50
2023-05-24T12:22:06.668Z,15.60
2023-05-24T12:24:39.270Z,15.70
2023-05-24T12:27:10.317Z,15.80
2023-05-24T12:29:40.488Z,15.80
2023-05-24T12:32:14.860Z,15.90
2023-05-24T12:34:46.265Z,16.00
2023-05-24T12:37:19.633Z,16.10
2023-05-24T12:39:52.353Z,16.30
2023-05-24T12:42:24.042Z,16.40
2023-05-24T12:44:54.380Z,16.40
2023-05-24T12:47:22.853Z,16.30
2023-05-24T12:49:51.174Z,16.30
2023-05-24T12:52:24.712Z,16.30
2023-05-24T12:54:53.084Z,16.40
2023-05-24T12:57:21.440Z,16.40
2023-05-24T12:59:49.655Z,16.60
2023-05-24T13:02:17.836Z,16.70
2023-05-24T13:04:49.282Z,16.60
2023-05-24T13:07:17.567Z,16.70
2023-05-24T13:09:49.382Z,16.70
2023-05-24T13:12:17.665Z,16.70
2023-05-24T13:14:46.012Z,16.70
2023-05-24T13:17:18.022Z,16.70
2023-05-24T13:19:47.180Z,16.80
2023-05-24T13:22:18.182Z,16.80
2023-05-24T13:24:57.078Z,16.80
2023-05-24T13:27:29.516Z,16.80
2023-05-24T13:30:01.218Z,16.90
2023-05-24T13:32:32.112Z,16.90
2023-05-24T13:35:01.086Z,17.00
2023-05-24T13:37:29.898Z,17.00
2023-05-24T13:39:59.531Z,17.10
2023-05-24T13:42:27.837Z,17.10
2023-05-24T13:44:56.390Z,17.30
2023-05-24T13:47:38.663Z,17.30
2023-05-24T13:50:08.291Z,17.40
2023-05-24T13:52:39.597Z,17.50
2023-05-24T13:55:10.753Z,17.60
2023-05-24T13:57:51.292Z,17.60
2023-05-24T14:00:21.370Z,17.60
2023-05-24T14:02:49.961Z,17.70
2023-05-24T14:05:27.571Z,17.70
2023-05-24T14:08:00.396Z,17.60
2023-05-24T14:10:30.208Z,17.50
2023-05-24T14:13:20.793Z,17.40
2023-05-24T14:15:51.421Z,17.40
2023-05-24T14:18:22.049Z,17.50
2023-05-24T14:20:50.185Z,17.50
2023-05-24T14:23:21.416Z,17.50
2023-05-24T14:25:52.018Z,17.50
2023-05-24T14:28:22.441Z,17.50
2023-05-24T14:30:50.856Z,17.60
2023-05-24T14:33:23.389Z,17.60
2023-05-24T14:35:52.002Z,17.70
2023-05-24T14:38:23.903Z,17.70
2023-05-24T14:40:53.567Z,17.70
2023-05-24T14:43:21.999Z,17.60
2023-05-24T14:45:50.331Z,17.50
2023-05-24T14:48:18.567Z,17.50
2023-05-24T14:50:46.774Z,17.50
2023-05-24T14:53:15.198Z,17.50
2023-05-24T14:55:45.667Z,17.40
2023-05-24T14:58:17.541Z,17.40
2023-05-24T15:00:48.262Z,17.50
2023-05-24T15:03:17.037Z,17.50
2023-05-24T15:05:47.359Z,17.60
2023-05-24T15:08:15.584Z,17.60
2023-05-24T15:10:45.392Z,17.60
2023-05-24T15:13:18.784Z,17.60
2023-05-24T15:15:49.237Z,17.60
2023-05-24T15:18:17.873Z,17.60
2023-05-24T15:20:46.344Z,17.60
2023-05-24T15:23:15.008Z,17.60
2023-05-24T15:25:46.213Z,17.60
2023-05-24T15:28:16.969Z,17.60
2023-05-24T15:30:48.820Z,17.60
2023-05-24T15:33:20.109Z,17.60
2023-05-24T15:35:52.733Z,17.60
2023-05-24T15:38:21.229Z,17.50
2023-05-24T15:41:14.407Z,17.50
2023-05-24T15:43:42.668Z,17.40
2023-05-24T15:46:12.248Z,17.40
2023-05-24T15:48:40.476Z,17.40
2023-05-24T15:53:39.960Z,17.40
2023-05-24T15:56:10.368Z,17.40
2023-05-24T15:58:41.105Z,17.40
2023-05-24T16:01:09.385Z,17.40
2023-05-24T16:03:41.254Z,17.40
2023-05-24T16:06:09.546Z,17.40
2023-05-24T16:08:40.003Z,17.40
2023-05-24T16:11:10.003Z,17.20
2023-05-24T16:13:38.157Z,17.20
2023-05-24T16:16:06.841Z,17.20
2023-05-24T16:18:37.043Z,17.10
2023-05-24T16:21:08.882Z,17.00
2023-05-24T16:23:37.173Z,16.90
2023-05-24T16:26:07.736Z,16.90
2023-05-24T16:28:35.994Z,16.90
2023-05-24T16:31:04.222Z,16.90
2023-05-24T16:33:35.421Z,16.90
2023-05-24T16:36:04.612Z,16.90
2023-05-24T16:38:34.509Z,16.90
2023-05-24T16:41:06.260Z,16.90
2023-05-24T16:43:37.122Z,16.90
2023-05-24T16:46:05.424Z,16.90
2023-05-24T16:48:33.695Z,16.80
2023-05-24T16:51:02.118Z,16.80
2023-05-24T16:53:34.132Z,16.80
2023-05-24T16:56:02.325Z,16.80
2023-05-24T16:58:33.560Z,16.70
2023-05-24T17:01:01.774Z,16.70
2023-05-24T17:03:30.114Z,16.70
2023-05-24T17:06:03.877Z,16.70
2023-05-24T17:08:37.103Z,16.70
2023-05-24T17:11:06.056Z,16.70
2023-05-24T17:13:34.733Z,16.70
2023-05-24T17:16:04.607Z,16.60
2023-05-24T17:18:33.031Z,16.70
2023-05-24T17:21:06.373Z,16.70
2023-05-24T17:23:38.227Z,16.70
2023-05-24T17:26:08.109Z,16.70
2023-05-24T17:28:37.071Z,16.80
2023-05-24T17:31:09.257Z,16.80
2023-05-24T17:33:39.687Z,16.80
2023-05-24T17:36:09.581Z,16.80
2023-05-24T17:38:39.481Z,16.70
2023-05-24T17:41:09.614Z,16.70
2023-05-24T17:43:39.985Z,16.70
2023-05-24T17:46:08.346Z,16.70
2023-05-24T17:48:38.021Z,16.70
2023-05-24T17:51:07.672Z,16.60
2023-05-24T17:53:36.309Z,16.60
2023-05-24T17:56:07.381Z,16.60
2023-05-24T17:58:37.957Z,16.60
2023-05-24T18:01:07.580Z,16.60
2023-05-24T18:03:37.729Z,16.50
2023-05-24T18:06:07.470Z,16.50
2023-05-24T18:08:37.813Z,16.50
2023-05-24T18:11:09.993Z,16.40
2023-05-24T18:13:38.665Z,16.40
2023-05-24T18:16:07.171Z,16.30
2023-05-24T18:18:35.589Z,16.40
2023-05-24T18:21:03.799Z,16.40
2023-05-24T18:23:34.111Z,16.40
2023-05-24T18:26:09.008Z,16.30
2023-05-24T18:28:41.861Z,16.30
2023-05-24T18:31:11.405Z,16.30
2023-05-24T18:33:43.169Z,16.20
2023-05-24T18:36:12.638Z,16.20
2023-05-24T18:38:41.053Z,16.10
2023-05-24T18:41:12.055Z,16.00
2023-05-24T18:43:43.712Z,15.90
2023-05-24T18:46:13.793Z,15.90
2023-05-24T18:48:42.202Z,15.80
2023-05-24T18:51:10.575Z,15.80
2023-05-24T18:53:40.024Z,15.80
2023-05-24T18:56:08.379Z,15.80
2023-05-24T18:58:38.030Z,15.80
2023-05-24T19:01:06.349Z,15.80
2023-05-24T19:03:34.640Z,15.80
2023-05-24T19:06:02.846Z,15.70
2023-05-24T19:08:33.377Z,15.70
2023-05-24T19:11:01.801Z,15.70
2023-05-24T19:13:31.674Z,15.60
2023-05-24T19:16:03.364Z,15.60
2023-05-24T19:18:31.748Z,15.50
2023-05-24T19:21:02.183Z,15.50
2023-05-24T19:23:30.306Z,15.40
2023-05-24T19:25:58.507Z,15.40
2023-05-24T19:28:28.900Z,15.30
2023-05-24T19:30:57.228Z,15.30
2023-05-24T19:33:28.963Z,15.30
2023-05-24T19:36:00.138Z,15.30
2023-05-24T19:38:28.390Z,15.20
2023-05-24T19:40:59.588Z,15.20
2023-05-24T19:43:30.317Z,15.10
2023-05-24T19:46:01.673Z,15.00
2023-05-24T19:48:31.228Z,15.00
2023-05-24T19:50:59.430Z,14.90
2023-05-24T19:53:30.557Z,14.90
2023-05-24T19:56:01.074Z,14.80
2023-05-24T19:58:30.332Z,14.80
2023-05-24T20:01:01.025Z,14.70
2023-05-24T20:03:30.679Z,14.70
2023-05-24T20:05:58.983Z,14.60
2023-05-24T20:08:27.262Z,14.50
2023-05-24T20:10:55.529Z,14.50
2023-05-24T20:13:26.027Z,14.40
2023-05-24T20:15:56.022Z,14.40
2023-05-24T20:18:26.611Z,14.40
2023-05-24T20:20:58.539Z,14.40
2023-05-24T20:23:29.223Z,14.30
2023-05-24T20:25:57.608Z,14.30
2023-05-24T20:28:31.199Z,14.20
2023-05-24T20:31:00.393Z,14.20
2023-05-24T20:33:30.874Z,14.10
2023-05-24T20:36:02.792Z,14.00
2023-05-24T20:38:33.626Z,14.00
2023-05-24T20:41:03.632Z,13.90
2023-05-24T20:43:32.367Z,13.90
2023-05-24T20:46:02.879Z,13.80
2023-05-24T20:48:31.186Z,13.70
2023-05-24T20:50:59.440Z,13.70
2023-05-24T20:53:29.035Z,13.60
2023-05-24T20:56:01.778Z,13.60
2023-05-24T20:58:32.966Z,13.60
2023-05-24T21:01:03.530Z,13.50
2023-05-24T21:03:31.743Z,13.50
2023-05-24T21:05:59.926Z,13.40
2023-05-24T21:08:29.427Z,13.30
2023-05-24T21:11:00.134Z,13.30
2023-05-24T21:13:30.642Z,13.20
2023-05-24T21:16:02.209Z,13.20
2023-05-24T21:18:33.530Z,13.20
2023-05-24T21:21:04.583Z,13.10
2023-05-24T21:23:34.101Z,13.00
2023-05-24T21:26:02.490Z,13.00
2023-05-24T21:28:30.965Z,12.90
2023-05-24T21:31:01.960Z,12.90
2023-05-24T21:33:32.405Z,12.90
2023-05-24T21:36:00.537Z,12.80
2023-05-24T21:38:28.686Z,12.80
2023-05-24T21:40:58.251Z,12.70
2023-05-24T21:43:28.637Z,12.70
2023-05-24T21:45:59.071Z,12.60
2023-05-24T21:48:29.563Z,12.60
2023-05-24T21:51:01.261Z,12.60
2023-05-24T21:53:29.432Z,12.60
2023-05-24T21:56:03.839Z,12.50
2023-05-24T21:58:35.138Z,12.50
2023-05-24T22:01:03.448Z,12.40
2023-05-24T22:03:31.713Z,12.40
2023-05-24T22:06:02.348Z,12.30
2023-05-24T22:08:31.220Z,12.30
2023-05-24T22:11:00.821Z,12.20
2023-05-24T22:13:31.363Z,12.20
2023-05-24T22:15:59.574Z,12.20
2023-05-24T22:18:30.617Z,12.20
2023-05-24T22:21:02.179Z,12.10
2023-05-24T22:23:31.064Z,12.10
2023-05-24T22:26:01.785Z,12.00
2023-05-24T22:28:30.050Z,12.00
2023-05-24T22:30:59.082Z,12.00
2023-05-24T22:33:27.289Z,11.90
2023-05-24T22:35:55.646Z,11.90
2023-05-24T22:38:23.812Z,11.80
2023-05-24T22:40:52.154Z,11.80
2023-05-24T22:43:23.701Z,11.80
2023-05-24T22:45:54.147Z,11.70
2023-05-24T22:48:26.592Z,11.70
2023-05-24T22:50:59.352Z,11.60
2023-05-24T22:53:27.833Z,11.60
2023-05-24T22:55:59.067Z,11.60
2023-05-24T22:58:28.671Z,11.50
2023-05-24T23:00:56.849Z,11.50
2023-05-24T23:03:25.054Z,11.50
2023-05-24T23:05:55.430Z,11.40
2023-05-24T23:08:25.642Z,11.40
2023-05-24T23:10:54.090Z,11.40
2023-05-24T23:13:22.256Z,11.30
2023-05-24T23:15:52.128Z,11.30
2023-05-24T23:18:25.861Z,11.30
2023-05-24T23:20:56.969Z,11.30
2023-05-24T23:23:28.260Z,11.20
2023-05-24T23:25:56.463Z,11.10
2023-05-24T23:28:24.677Z,11.10
2023-05-24T23:30:54.465Z,11.00
2023-05-24T23:33:22.754Z,10.90
2023-05-24T23:35:54.848Z,10.90
2023-05-24T23:38:23.038Z,10.90
2023-05-24T23:40:51.297Z,10.90
2023-05-24T23:43:21.752Z,10.80
2023-05-24T23:45:49.901Z,10.80
2023-05-24T23:48:20.893Z,10.80
2023-05-24T23:50:54.279Z,10.80
2023-05-24T23:53:25.164Z,10.80
2023-05-24T23:55:53.310Z,10.70
2023-05-24T23:58:21.534Z,10.70
